createdAt,value
2023-04-25T00:02:41.449Z,7.97
2023-04-25T00:05:28.026Z,7.85
2023-04-25T00:08:13.474Z,7.70
2023-04-25T00:10:59.842Z,9.63
2023-04-25T00:13:47.741Z,5.40
2023-04-25T00:16:35.948Z,5.03
2023-04-25T00:19:21.864Z,9.30
2023-04-25T00:22:07.307Z,8.35
2023-04-25T00:24:54.357Z,4.65
2023-04-25T00:27:40.318Z,4.35
2023-04-25T00:30:25.920Z,8.98
2023-04-25T00:33:11.356Z,5.72
2023-04-25T00:35:57.238Z,8.15
2023-04-25T00:38:42.514Z,8.35
2023-04-25T00:41:28.258Z,9.82
2023-04-25T00:44:17.905Z,8.77
2023-04-25T00:47:04.626Z,4.85
2023-04-25T00:49:50.368Z,6.15
2023-04-25T00:52:36.361Z,6.78
2023-04-25T00:55:22.107Z,5.97
2023-04-25T00:58:07.685Z,5.25
2023-04-25T01:00:53.739Z,5.25
2023-04-25T01:03:43.874Z,6.22
2023-04-25T01:06:29.652Z,5.15
2023-04-25T01:09:15.065Z,10.40
2023-04-25T01:12:01.082Z,10.00
2023-04-25T01:14:47.485Z,6.10
2023-04-25T01:17:35.035Z,5.40
2023-04-25T01:20:23.952Z,5.18
2023-04-25T01:23:10.382Z,8.07
2023-04-25T01:25:56.133Z,5.28
2023-04-25T01:28:42.440Z,6.95
2023-04-25T01:31:29.835Z,8.02
2023-04-25T01:34:15.273Z,5.20
2023-04-25T01:37:02.715Z,11.57
2023-04-25T01:39:49.773Z,7.78
2023-04-25T01:42:36.702Z,5.65
2023-04-25T01:45:22.236Z,6.38
2023-04-25T01:48:09.600Z,5.38
2023-04-25T01:50:55.626Z,8.40
2023-04-25T01:53:41.157Z,7.18
2023-04-25T01:56:31.652Z,9.88
2023-04-25T01:59:17.012Z,9.27
2023-04-25T02:02:31.632Z,7.25
2023-04-25T02:05:19.031Z,9.05
2023-04-25T02:08:07.161Z,6.10
2023-04-25T02:10:52.707Z,6.50
2023-04-25T02:13:38.740Z,7.65
2023-04-25T02:16:49.458Z,7.72
2023-04-25T02:19:35.526Z,5.65
2023-04-25T02:22:21.884Z,6.97
2023-04-25T02:25:07.617Z,4.63
2023-04-25T02:27:54.874Z,6.82
2023-04-25T02:30:40.597Z,5.55
2023-04-25T02:33:26.008Z,4.25
2023-04-25T02:36:11.594Z,4.55
2023-04-25T02:38:57.183Z,5.20
2023-04-25T02:41:42.586Z,8.02
2023-04-25T02:44:27.970Z,7.43
2023-04-25T02:47:13.421Z,5.22
2023-04-25T02:49:58.780Z,6.18
2023-04-25T02:52:44.143Z,4.30
2023-04-25T02:55:36.171Z,8.15
2023-04-25T02:58:24.109Z,9.45
2023-04-25T03:01:11.464Z,5.90
2023-04-25T03:03:57.167Z,6.85
2023-04-25T03:06:43.752Z,4.50
2023-04-25T03:09:29.036Z,14.13
2023-04-25T03:12:17.443Z,5.85
2023-04-25T03:15:04.758Z,6.45
2023-04-25T03:17:50.391Z,6.60
2023-04-25T03:20:35.753Z,4.97
2023-04-25T03:23:22.690Z,6.07
2023-04-25T03:26:08.114Z,6.25
2023-04-25T03:28:53.523Z,5.80
2023-04-25T03:31:39.981Z,8.50
2023-04-25T03:34:25.466Z,6.82
2023-04-25T03:37:11.311Z,5.07
2023-04-25T03:39:57.980Z,7.05
2023-04-25T03:42:50.567Z,7.47
2023-04-25T03:45:37.493Z,5.28
2023-04-25T03:48:23.614Z,9.10
2023-04-25T03:51:09.215Z,5.40
2023-04-25T03:53:58.052Z,6.97
2023-04-25T03:56:49.763Z,10.85
2023-04-25T03:59:39.218Z,8.85
2023-04-25T04:02:26.131Z,5.15
2023-04-25T04:05:12.871Z,13.65
2023-04-25T04:08:06.326Z,6.82
2023-04-25T04:10:52.368Z,8.00
2023-04-25T04:13:38.452Z,9.88
2023-04-25T04:16:26.032Z,5.63
2023-04-25T04:19:12.029Z,5.05
2023-04-25T04:22:01.562Z,6.13
2023-04-25T04:24:47.450Z,7.68
2023-04-25T04:27:39.355Z,6.45
2023-04-25T04:30:40.302Z,7.50
2023-04-25T04:33:27.500Z,7.78
2023-04-25T04:36:20.883Z,10.73
2023-04-25T04:39:07.386Z,6.88
2023-04-25T04:42:15.890Z,5.82
2023-04-25T04:45:17.384Z,18.48
2023-04-25T04:48:24.051Z,14.95
2023-04-25T04:51:16.006Z,5.88
2023-04-25T04:54:09.931Z,6.05
2023-04-25T04:57:15.355Z,7.90
2023-04-25T05:00:36.026Z,8.05
2023-04-25T05:03:41.386Z,6.85
2023-04-25T05:06:53.135Z,6.10
2023-04-25T05:10:00.908Z,5.38
2023-04-25T05:13:03.828Z,6.15
2023-04-25T05:16:04.616Z,8.65
2023-04-25T05:19:08.914Z,6.95
2023-04-25T05:22:06.755Z,6.07
2023-04-25T05:24:58.314Z,6.25
2023-04-25T05:28:03.821Z,6.95
2023-04-25T05:31:28.367Z,14.50
2023-04-25T05:34:19.701Z,5.03
2023-04-25T05:37:13.643Z,6.93
2023-04-25T05:40:11.757Z,6.50
2023-04-25T05:43:15.578Z,8.30
2023-04-25T05:46:15.500Z,7.53
2023-04-25T05:49:21.839Z,6.40
2023-04-25T05:52:42.989Z,8.52
2023-04-25T05:55:48.470Z,9.60
2023-04-25T05:58:42.206Z,13.52
2023-04-25T06:01:30.145Z,10.18
2023-04-25T06:04:15.961Z,10.45
2023-04-25T06:07:01.848Z,12.60
2023-04-25T06:09:47.487Z,9.38
2023-04-25T06:12:34.281Z,8.38
2023-04-25T06:18:08.750Z,7.90
2023-04-25T06:20:54.719Z,14.23
2023-04-25T06:23:41.506Z,9.45
2023-04-25T06:26:30.289Z,8.60
2023-04-25T06:29:16.053Z,7.43
2023-04-25T06:32:02.089Z,9.05
2023-04-25T06:34:48.871Z,10.73
2023-04-25T06:37:34.603Z,6.57
2023-04-25T06:40:21.379Z,10.35
2023-04-25T06:43:06.832Z,6.45
2023-04-25T06:46:08.875Z,6.07
2023-04-25T06:49:01.605Z,7.75
2023-04-25T06:51:47.484Z,7.30
2023-04-25T06:54:33.269Z,6.85
2023-04-25T06:57:25.056Z,6.57
2023-04-25T07:00:11.907Z,5.00
2023-04-25T07:02:57.697Z,8.48
2023-04-25T07:05:43.406Z,5.43
2023-04-25T07:08:30.150Z,5.78
2023-04-25T07:11:17.343Z,5.43
2023-04-25T07:14:03.036Z,7.65
2023-04-25T07:16:48.817Z,5.68
2023-04-25T07:19:34.263Z,5.72
2023-04-25T07:22:21.229Z,4.60
2023-04-25T07:25:08.328Z,6.20
2023-04-25T07:27:54.156Z,5.05
2023-04-25T07:30:40.425Z,9.38
2023-04-25T07:33:26.126Z,4.80
2023-04-25T07:36:11.778Z,6.70
2023-04-25T07:38:58.686Z,4.72
2023-04-25T07:41:44.250Z,6.32
2023-04-25T07:44:41.016Z,4.32
2023-04-25T07:47:28.498Z,4.75
2023-04-25T07:50:13.893Z,6.40
2023-04-25T07:52:59.960Z,5.80
2023-04-25T07:55:52.231Z,7.80
2023-04-25T07:58:39.589Z,6.93
2023-04-25T08:01:28.081Z,5.00
2023-04-25T08:04:18.214Z,6.38
2023-04-25T08:07:17.725Z,7.47
2023-04-25T08:10:13.084Z,6.70
2023-04-25T08:12:58.725Z,5.78
2023-04-25T08:15:44.330Z,9.32
2023-04-25T08:18:29.737Z,4.43
2023-04-25T08:21:15.054Z,4.05
2023-04-25T08:24:02.575Z,4.22
2023-04-25T08:26:52.731Z,4.80
2023-04-25T08:29:40.613Z,4.55
2023-04-25T08:32:26.681Z,4.65
2023-04-25T08:35:30.324Z,4.68
2023-04-25T08:38:16.392Z,5.90
2023-04-25T08:41:03.202Z,4.03
2023-04-25T08:43:52.464Z,4.43
2023-04-25T08:46:42.349Z,4.38
2023-04-25T08:49:45.978Z,5.70
2023-04-25T08:52:41.053Z,5.63
2023-04-25T08:55:27.716Z,3.53
2023-04-25T08:58:19.656Z,5.85
2023-04-25T09:01:07.493Z,3.45
2023-04-25T09:04:01.322Z,3.17
2023-04-25T09:06:48.344Z,5.22
2023-04-25T09:09:34.512Z,3.22
2023-04-25T09:12:20.815Z,3.75
2023-04-25T09:15:20.370Z,3.65
2023-04-25T09:18:33.572Z,4.93
2023-04-25T09:21:23.984Z,3.90
2023-04-25T09:24:10.096Z,4.20
2023-04-25T09:26:55.507Z,4.35
2023-04-25T09:29:42.112Z,3.33
2023-04-25T09:32:30.150Z,3.10
2023-04-25T09:35:28.400Z,3.05
2023-04-25T09:38:19.531Z,5.95
2023-04-25T09:41:24.783Z,3.13
2023-04-25T09:44:14.294Z,3.67
2023-04-25T09:47:01.598Z,3.60
2023-04-25T09:49:49.159Z,2.92
2023-04-25T09:52:35.022Z,7.07
2023-04-25T09:55:35.639Z,6.53
2023-04-25T09:58:21.759Z,5.05
2023-04-25T10:01:10.012Z,3.38
2023-04-25T10:04:11.788Z,3.40
2023-04-25T10:07:22.098Z,3.35
2023-04-25T10:10:08.527Z,3.28
2023-04-25T10:12:55.089Z,3.45
2023-04-25T10:15:41.343Z,4.85
2023-04-25T10:18:28.570Z,4.18
2023-04-25T10:21:15.265Z,3.17
2023-04-25T10:24:01.662Z,3.58
2023-04-25T10:26:48.342Z,3.45
2023-04-25T10:29:33.830Z,5.20
2023-04-25T10:32:19.935Z,2.80
2023-04-25T10:35:19.339Z,3.70
2023-04-25T10:38:07.333Z,3.17
2023-04-25T10:41:09.406Z,2.70
2023-04-25T10:44:02.538Z,5.05
2023-04-25T10:46:48.374Z,3.25
2023-04-25T10:49:43.924Z,3.30
2023-04-25T10:52:30.781Z,5.30
2023-04-25T10:55:16.562Z,4.28
2023-04-25T10:58:03.371Z,3.92
2023-04-25T11:03:46.338Z,3.30
2023-04-25T11:06:53.714Z,3.05
2023-04-25T11:09:42.048Z,3.28
2023-04-25T11:12:27.714Z,3.75
2023-04-25T11:15:13.346Z,4.22
2023-04-25T11:17:59.035Z,5.35
2023-04-25T11:20:44.731Z,3.10
2023-04-25T11:23:31.320Z,3.83
2023-04-25T11:26:17.429Z,4.25
2023-04-25T11:29:03.922Z,4.28
2023-04-25T11:31:49.754Z,3.13
2023-04-25T11:34:35.600Z,3.45
2023-04-25T11:37:22.171Z,3.17
2023-04-25T11:40:09.775Z,3.03
2023-04-25T11:42:55.578Z,2.90
2023-04-25T11:45:41.185Z,2.60
2023-04-25T11:48:27.227Z,2.70
2023-04-25T11:51:12.840Z,2.30
2023-04-25T11:53:58.515Z,2.70
2023-04-25T11:56:47.405Z,5.00
2023-04-25T11:59:33.019Z,2.95
2023-04-25T12:02:26.837Z,3.42
2023-04-25T12:05:31.262Z,3.15
2023-04-25T12:08:18.107Z,3.58
2023-04-25T12:11:04.381Z,2.60
2023-04-25T12:13:54.305Z,2.55
2023-04-25T12:16:47.098Z,3.10
2023-04-25T12:19:37.890Z,2.33
2023-04-25T12:22:25.697Z,3.28
2023-04-25T12:25:35.067Z,2.70
2023-04-25T12:28:25.302Z,3.72
2023-04-25T12:31:11.185Z,1.92
2023-04-25T12:33:58.136Z,4.25
2023-04-25T12:36:43.413Z,4.15
2023-04-25T12:39:28.753Z,2.80
2023-04-25T12:42:14.433Z,3.95
2023-04-25T12:44:59.799Z,3.88
2023-04-25T12:47:46.152Z,2.67
2023-04-25T12:50:32.091Z,2.83
2023-04-25T12:53:19.138Z,3.00
2023-04-25T12:56:05.266Z,5.72
2023-04-25T12:58:51.446Z,4.72
2023-04-25T13:01:38.546Z,3.20
2023-04-25T13:04:24.569Z,3.92
2023-04-25T13:07:10.079Z,6.25
2023-04-25T13:09:55.685Z,4.20
2023-04-25T13:12:41.171Z,3.40
2023-04-25T13:15:27.011Z,3.63
2023-04-25T13:18:12.931Z,3.90
2023-04-25T13:20:59.487Z,3.92
2023-04-25T13:23:47.406Z,8.13
2023-04-25T13:26:33.459Z,4.78
2023-04-25T13:29:18.834Z,3.92
2023-04-25T13:32:04.648Z,7.20
2023-04-25T13:34:50.243Z,5.10
2023-04-25T13:37:35.648Z,3.33
2023-04-25T13:40:24.031Z,2.92
2023-04-25T13:43:11.187Z,3.30
2023-04-25T13:45:56.813Z,5.00
2023-04-25T13:48:47.270Z,3.65
2023-04-25T13:51:32.975Z,3.63
2023-04-25T13:54:18.301Z,3.67
2023-04-25T13:57:03.745Z,3.05
2023-04-25T13:59:49.138Z,3.10
2023-04-25T14:02:34.529Z,3.88
2023-04-25T14:05:20.329Z,4.65
2023-04-25T14:08:10.324Z,5.95
2023-04-25T14:10:56.267Z,6.05
2023-04-25T14:13:41.824Z,8.32
2023-04-25T14:16:27.414Z,6.15
2023-04-25T14:19:13.178Z,5.00
2023-04-25T14:21:58.644Z,4.80
2023-04-25T14:24:44.100Z,5.95
2023-04-25T14:27:29.447Z,4.90
2023-04-25T14:30:14.873Z,4.90
2023-04-25T14:33:00.663Z,8.20
2023-04-25T14:35:47.060Z,6.88
2023-04-25T14:38:32.689Z,5.68
2023-04-25T14:41:18.094Z,7.75
2023-04-25T14:44:03.717Z,6.40
2023-04-25T14:46:52.683Z,5.65
2023-04-25T14:49:38.126Z,4.88
2023-04-25T14:52:23.604Z,4.28
2023-04-25T14:55:09.521Z,5.10
2023-04-25T14:57:57.528Z,4.30
2023-04-25T15:00:44.597Z,4.25
2023-04-25T15:03:30.136Z,5.35
2023-04-25T15:06:18.472Z,2.55
2023-04-25T15:09:05.727Z,3.22
2023-04-25T15:11:51.976Z,6.22
2023-04-25T15:14:37.705Z,2.60
2023-04-25T15:17:23.447Z,3.72
2023-04-25T15:20:16.415Z,2.40
2023-04-25T15:23:04.505Z,4.97
2023-04-25T15:25:53.175Z,4.10
2023-04-25T15:28:40.239Z,2.85
2023-04-25T15:31:26.233Z,2.45
2023-04-25T15:34:12.287Z,2.38
2023-04-25T15:36:58.659Z,3.63
2023-04-25T15:39:45.252Z,1.95
2023-04-25T15:42:31.967Z,2.55
2023-04-25T15:45:21.586Z,2.55
2023-04-25T15:48:07.410Z,4.03
2023-04-25T15:50:52.771Z,2.30
2023-04-25T15:53:38.296Z,3.00
2023-04-25T15:56:24.258Z,5.80
2023-04-25T15:59:09.819Z,3.47
2023-04-25T16:01:55.330Z,4.05
2023-04-25T16:04:40.788Z,3.10
2023-04-25T16:07:26.839Z,3.30
2023-04-25T16:10:13.013Z,3.20
2023-04-25T16:12:58.956Z,4.30
2023-04-25T16:15:44.516Z,4.50
2023-04-25T16:18:29.967Z,1.92
2023-04-25T16:21:17.312Z,2.35
2023-04-25T16:24:02.951Z,2.65
2023-04-25T16:26:48.383Z,1.77
2023-04-25T16:29:33.894Z,1.80
2023-04-25T16:32:21.792Z,1.65
2023-04-25T16:35:09.701Z,3.42
2023-04-25T16:37:55.193Z,3.88
2023-04-25T16:40:40.776Z,2.53
2023-04-25T16:43:29.335Z,2.58
2023-04-25T16:46:14.946Z,2.65
2023-04-25T16:49:01.170Z,2.13
2023-04-25T16:51:47.157Z,3.40
2023-04-25T16:54:32.538Z,2.58
2023-04-25T16:57:18.080Z,2.60
2023-04-25T17:00:05.624Z,2.97
2023-04-25T17:02:52.378Z,2.47
2023-04-25T17:05:37.765Z,2.80
2023-04-25T17:08:26.110Z,1.67
2023-04-25T17:11:11.846Z,1.73
2023-04-25T17:13:57.745Z,3.97
2023-04-25T17:16:43.442Z,1.98
2023-04-25T17:19:30.392Z,1.92
2023-04-25T17:22:16.675Z,1.75
2023-04-25T17:25:02.233Z,1.73
2023-04-25T17:27:47.676Z,2.20
2023-04-25T17:30:34.471Z,3.10
2023-04-25T17:33:19.924Z,2.75
2023-04-25T17:36:07.206Z,5.43
2023-04-25T17:38:53.170Z,3.08
2023-04-25T17:41:39.027Z,3.00
2023-04-25T17:44:24.684Z,2.45
2023-04-25T17:47:11.564Z,2.33
2023-04-25T17:49:57.932Z,2.10
2023-04-25T17:52:45.528Z,2.42
2023-04-25T17:55:31.820Z,3.03
2023-04-25T17:58:17.610Z,2.90
2023-04-25T18:01:05.590Z,2.67
2023-04-25T18:03:51.695Z,2.88
2023-04-25T18:06:45.434Z,3.75
2023-04-25T18:09:34.497Z,3.60
2023-04-25T18:12:20.765Z,3.38
2023-04-25T18:15:07.204Z,3.33
2023-04-25T18:17:53.050Z,4.28
2023-04-25T18:20:39.729Z,2.88
2023-04-25T18:23:26.355Z,3.17
2023-04-25T18:26:12.258Z,3.53
2023-04-25T18:28:57.653Z,3.42
2023-04-25T18:31:44.020Z,4.35
2023-04-25T18:34:29.477Z,3.97
2023-04-25T18:37:18.090Z,3.55
2023-04-25T18:40:07.189Z,3.83
2023-04-25T18:42:53.230Z,3.80
2023-04-25T18:45:39.005Z,3.85
2023-04-25T18:48:24.527Z,4.00
2023-04-25T18:51:13.818Z,4.00
2023-04-25T18:54:02.400Z,4.75
2023-04-25T18:56:49.038Z,5.57
2023-04-25T18:59:35.595Z,5.32
2023-04-25T19:02:22.770Z,4.50
2023-04-25T19:05:10.361Z,4.15
2023-04-25T19:07:57.544Z,4.10
2023-04-25T19:10:44.475Z,4.03
2023-04-25T19:13:31.215Z,3.63
2023-04-25T19:16:19.436Z,3.10
2023-04-25T19:19:08.848Z,3.38
2023-04-25T19:21:54.802Z,2.90
2023-04-25T19:24:40.848Z,3.33
2023-04-25T19:27:26.677Z,3.60
2023-04-25T19:30:12.181Z,6.90
2023-04-25T19:32:57.990Z,4.03
2023-04-25T19:35:43.640Z,3.53
2023-04-25T19:38:29.114Z,6.05
2023-04-25T19:41:14.661Z,3.88
2023-04-25T19:44:04.758Z,3.63
2023-04-25T19:46:50.333Z,2.95
2023-04-25T19:49:36.147Z,3.30
2023-04-25T19:52:22.197Z,2.85
2023-04-25T19:55:08.532Z,2.75
2023-04-25T19:57:54.166Z,2.53
2023-04-25T20:00:39.823Z,2.60
2023-04-25T20:03:27.504Z,3.20
2023-04-25T20:06:13.493Z,3.70
2023-04-25T20:08:59.483Z,6.90
2023-04-25T20:11:45.313Z,3.60
2023-04-25T20:14:32.626Z,5.20
2023-04-25T20:17:22.978Z,4.05
2023-04-25T20:20:10.840Z,7.03
2023-04-25T20:22:56.341Z,6.97
2023-04-25T20:25:41.983Z,5.25
2023-04-25T20:28:27.915Z,5.43
2023-04-25T20:31:14.008Z,3.55
2023-04-25T20:34:00.962Z,5.63
2023-04-25T20:36:46.636Z,2.50
2023-04-25T20:39:33.370Z,2.22
2023-04-25T20:42:18.874Z,1.95
2023-04-25T20:45:07.607Z,1.75
2023-04-25T20:47:53.332Z,2.10
2023-04-25T20:50:38.533Z,1.50
2023-04-25T20:53:24.288Z,1.80
2023-04-25T20:56:10.967Z,1.40
2023-04-25T20:58:58.244Z,1.95
2023-04-25T21:01:44.108Z,1.80
2023-04-25T21:04:30.075Z,2.20
2023-04-25T21:07:16.128Z,1.60
2023-04-25T21:10:02.182Z,4.93
2023-04-25T21:12:53.321Z,2.05
2023-04-25T21:15:40.158Z,1.00
2023-04-25T21:18:26.984Z,1.67
2023-04-25T21:21:13.674Z,1.95
2023-04-25T21:23:59.668Z,1.67
2023-04-25T21:26:45.741Z,1.48
2023-04-25T21:29:31.349Z,1.42
2023-04-25T21:32:20.808Z,1.40
2023-04-25T21:35:07.997Z,1.67
2023-04-25T21:37:53.895Z,1.30
2023-04-25T21:40:40.568Z,1.40
2023-04-25T21:43:25.964Z,1.65
2023-04-25T21:46:23.010Z,1.70
2023-04-25T21:49:09.705Z,1.52
2023-04-25T21:51:56.782Z,1.30
2023-04-25T21:54:42.415Z,1.50
2023-04-25T21:57:27.776Z,1.52
2023-04-25T22:00:24.818Z,1.60
2023-04-25T22:03:10.449Z,2.55
2023-04-25T22:05:56.511Z,2.25
2023-04-25T22:08:43.177Z,1.60
2023-04-25T22:11:29.089Z,2.38
2023-04-25T22:14:14.828Z,1.90
2023-04-25T22:17:01.322Z,1.38
2023-04-25T22:19:47.126Z,1.67
2023-04-25T22:22:33.755Z,1.38
2023-04-25T22:25:19.572Z,1.73
2023-04-25T22:28:05.276Z,2.55
2023-04-25T22:30:51.064Z,2.10
2023-04-25T22:33:37.186Z,1.42
2023-04-25T22:36:23.984Z,1.63
2023-04-25T22:39:09.882Z,1.55
2023-04-25T22:41:55.365Z,1.95
2023-04-25T22:44:40.585Z,1.50
2023-04-25T22:47:27.503Z,2.10
2023-04-25T22:50:13.787Z,2.13
2023-04-25T22:52:59.288Z,2.08
2023-04-25T22:55:44.729Z,2.17
2023-04-25T22:58:30.028Z,2.00
2023-04-25T23:01:18.887Z,1.52
2023-04-25T23:04:05.549Z,1.65
2023-04-25T23:06:51.187Z,1.50
2023-04-25T23:09:36.822Z,1.70
2023-04-25T23:12:22.039Z,2.10
2023-04-25T23:15:08.461Z,1.33
2023-04-25T23:17:53.825Z,2.03
2023-04-25T23:20:39.190Z,1.67
2023-04-25T23:23:24.779Z,1.75
2023-04-25T23:26:10.897Z,2.10
2023-04-25T23:28:56.599Z,1.35
2023-04-25T23:31:42.325Z,2.92
2023-04-25T23:34:31.597Z,1.83
2023-04-25T23:37:17.161Z,1.70
2023-04-25T23:40:08.586Z,1.60
2023-04-25T23:42:54.067Z,1.63
2023-04-25T23:45:40.178Z,1.75
2023-04-25T23:48:25.854Z,1.60
2023-04-25T23:51:11.377Z,1.60
2023-04-25T23:53:56.838Z,2.10
2023-04-25T23:56:42.206Z,1.73
2023-04-25T23:59:28.670Z,3.42
